createdAt,value
2023-03-06T00:01:11.569Z,0.40
2023-03-06T00:03:39.343Z,0.40
2023-03-06T00:06:07.745Z,0.50
2023-03-06T00:08:35.591Z,0.50
2023-03-06T00:11:03.449Z,0.40
2023-03-06T00:13:32.147Z,0.40
2023-03-06T00:16:01.844Z,0.25
2023-03-06T00:18:29.884Z,0.47
2023-03-06T00:20:57.654Z,0.80
2023-03-06T00:23:25.767Z,0.50
2023-03-06T00:25:53.615Z,0.40
2023-03-06T00:28:21.469Z,0.50
2023-03-06T00:30:49.229Z,0.30
2023-03-06T00:33:18.387Z,0.20
2023-03-06T00:35:46.281Z,0.70
2023-03-06T00:38:14.543Z,0.40
2023-03-06T00:40:42.437Z,0.63
2023-03-06T00:43:10.272Z,0.55
2023-03-06T00:45:38.386Z,0.50
2023-03-06T00:48:07.135Z,0.50
2023-03-06T00:50:36.286Z,0.50
2023-03-06T00:53:04.071Z,0.50
2023-03-06T00:55:33.469Z,0.40
2023-03-06T00:58:01.358Z,0.45
2023-03-06T01:00:29.179Z,0.30
2023-03-06T01:02:56.978Z,0.50
2023-03-06T01:05:24.929Z,0.60
2023-03-06T01:07:54.181Z,0.85
2023-03-06T01:10:22.096Z,0.30
2023-03-06T01:12:49.974Z,0.30
2023-03-06T01:15:17.795Z,0.45
2023-03-06T01:17:45.620Z,0.40
2023-03-06T01:20:15.758Z,0.30
2023-03-06T01:22:43.750Z,0.30
2023-03-06T01:25:13.169Z,0.37
2023-03-06T01:27:40.993Z,0.35
2023-03-06T01:30:10.377Z,0.30
2023-03-06T01:32:38.164Z,0.30
2023-03-06T01:35:06.908Z,0.22
2023-03-06T01:37:36.588Z,0.57
2023-03-06T01:40:05.275Z,0.85
2023-03-06T01:42:34.428Z,0.20
2023-03-06T01:45:07.024Z,0.30
2023-03-06T01:47:35.000Z,0.60
2023-03-06T01:50:05.618Z,0.27
2023-03-06T01:52:40.338Z,0.22
2023-03-06T01:55:11.672Z,0.35
2023-03-06T01:57:45.177Z,0.57
2023-03-06T02:00:15.180Z,0.55
2023-03-06T02:02:45.029Z,0.23
2023-03-06T02:05:13.137Z,0.40
2023-03-06T02:07:42.826Z,0.40
2023-03-06T02:10:11.728Z,0.40
2023-03-06T02:12:43.637Z,0.60
2023-03-06T02:15:12.749Z,0.40
2023-03-06T02:17:41.052Z,0.30
2023-03-06T02:20:13.648Z,0.30
2023-03-06T02:22:47.010Z,0.30
2023-03-06T02:25:27.304Z,0.30
2023-03-06T02:27:55.135Z,0.20
2023-03-06T02:30:24.704Z,0.50
2023-03-06T02:32:52.603Z,0.38
2023-03-06T02:35:25.076Z,0.30
2023-03-06T02:37:53.123Z,0.35
2023-03-06T02:40:24.597Z,0.30
2023-03-06T02:42:56.282Z,0.30
2023-03-06T02:45:31.493Z,0.43
2023-03-06T02:47:59.328Z,0.40
2023-03-06T02:50:27.182Z,0.40
2023-03-06T02:52:55.035Z,0.40
2023-03-06T02:55:24.248Z,0.40
2023-03-06T02:57:52.066Z,0.30
2023-03-06T03:00:21.175Z,0.52
2023-03-06T03:02:49.044Z,0.30
2023-03-06T03:05:17.145Z,0.50
2023-03-06T03:07:44.944Z,0.20
2023-03-06T03:10:13.566Z,0.28
2023-03-06T03:12:43.075Z,0.32
2023-03-06T03:15:11.780Z,0.50
2023-03-06T03:17:41.038Z,0.60
2023-03-06T03:20:11.693Z,0.30
2023-03-06T03:22:39.835Z,0.40
2023-03-06T03:25:08.756Z,0.40
2023-03-06T03:27:36.544Z,0.40
2023-03-06T03:30:06.567Z,0.20
2023-03-06T03:32:34.420Z,0.30
2023-03-06T03:35:02.480Z,0.45
2023-03-06T03:37:30.287Z,0.20
2023-03-06T03:39:58.132Z,0.40
2023-03-06T03:42:25.901Z,0.60
2023-03-06T03:44:53.665Z,0.40
2023-03-06T03:47:22.948Z,0.38
2023-03-06T03:49:50.720Z,0.65
2023-03-06T03:52:18.550Z,0.35
2023-03-06T03:54:46.358Z,0.20
2023-03-06T03:57:14.194Z,0.40
2023-03-06T03:59:42.008Z,0.30
2023-03-06T04:02:09.865Z,0.32
2023-03-06T04:04:39.136Z,0.38
2023-03-06T04:07:07.082Z,0.47
2023-03-06T04:09:34.900Z,0.30
2023-03-06T04:12:02.694Z,0.82
2023-03-06T04:14:30.482Z,0.63
2023-03-06T04:16:58.300Z,0.50
2023-03-06T04:19:26.113Z,0.30
2023-03-06T04:21:55.291Z,0.30
2023-03-06T04:24:23.094Z,1.05
2023-03-06T04:26:50.893Z,0.30
2023-03-06T04:29:18.667Z,0.30
2023-03-06T04:31:46.612Z,0.20
2023-03-06T04:34:14.621Z,0.38
2023-03-06T04:36:45.057Z,0.40
2023-03-06T04:39:15.097Z,0.40
2023-03-06T04:41:43.504Z,0.28
2023-03-06T04:44:11.423Z,0.30
2023-03-06T04:46:39.257Z,0.40
2023-03-06T04:49:07.115Z,0.30
2023-03-06T04:51:36.785Z,0.52
2023-03-06T04:54:05.490Z,0.30
2023-03-06T04:56:35.047Z,0.40
2023-03-06T04:59:04.007Z,0.77
2023-03-06T05:01:31.808Z,0.43
2023-03-06T05:03:59.580Z,0.50
2023-03-06T05:06:27.578Z,0.60
2023-03-06T05:08:55.620Z,0.70
2023-03-06T05:11:23.389Z,0.20
2023-03-06T05:13:52.658Z,0.80
2023-03-06T05:16:20.666Z,0.50
2023-03-06T05:18:50.595Z,0.40
2023-03-06T05:21:18.836Z,0.27
2023-03-06T05:23:47.598Z,0.70
2023-03-06T05:26:16.253Z,0.43
2023-03-06T05:28:44.091Z,0.52
2023-03-06T05:31:13.326Z,0.32
2023-03-06T05:33:41.129Z,0.50
2023-03-06T05:36:10.550Z,0.57
2023-03-06T05:38:38.489Z,0.40
2023-03-06T05:41:06.470Z,0.50
2023-03-06T05:43:34.272Z,0.50
2023-03-06T05:46:03.524Z,0.30
2023-03-06T05:48:37.514Z,0.40
2023-03-06T05:51:06.257Z,0.57
2023-03-06T05:53:34.269Z,0.22
2023-03-06T05:56:03.920Z,0.50
2023-03-06T05:58:33.162Z,0.23
2023-03-06T06:01:01.067Z,0.40
2023-03-06T06:03:28.892Z,0.50
2023-03-06T06:05:58.151Z,0.40
2023-03-06T06:08:25.916Z,0.40
2023-03-06T06:10:53.670Z,0.30
2023-03-06T06:13:21.542Z,0.40
2023-03-06T06:15:49.425Z,0.50
2023-03-06T06:18:17.228Z,0.35
2023-03-06T06:20:45.207Z,0.77
2023-03-06T06:23:14.524Z,0.40
2023-03-06T06:25:42.585Z,0.40
2023-03-06T06:28:12.397Z,0.40
2023-03-06T06:30:40.285Z,0.40
2023-03-06T06:33:08.076Z,0.40
2023-03-06T06:35:37.377Z,0.50
2023-03-06T06:38:05.186Z,0.70
2023-03-06T06:40:34.396Z,0.40
2023-03-06T06:43:02.228Z,0.57
2023-03-06T06:45:30.079Z,0.60
2023-03-06T06:47:57.903Z,0.30
2023-03-06T06:50:26.067Z,0.68
2023-03-06T06:52:53.910Z,0.40
2023-03-06T06:55:21.696Z,0.45
2023-03-06T06:57:50.959Z,0.35
2023-03-06T07:00:19.954Z,0.40
2023-03-06T07:02:49.248Z,0.50
2023-03-06T07:05:17.266Z,0.40
2023-03-06T07:07:45.091Z,0.50
2023-03-06T07:10:15.818Z,0.50
2023-03-06T07:12:43.762Z,0.40
2023-03-06T07:15:15.195Z,0.38
2023-03-06T07:17:43.074Z,0.40
2023-03-06T07:20:12.677Z,0.50
2023-03-06T07:22:50.490Z,0.40
2023-03-06T07:25:19.792Z,0.30
2023-03-06T07:27:53.471Z,0.60
2023-03-06T07:30:24.235Z,0.70
2023-03-06T07:32:54.218Z,0.40
2023-03-06T07:35:22.567Z,0.55
2023-03-06T07:37:51.165Z,0.50
2023-03-06T07:40:20.740Z,0.55
2023-03-06T07:42:48.576Z,0.80
2023-03-06T07:45:16.760Z,0.40
2023-03-06T07:47:46.367Z,0.60
2023-03-06T07:50:14.450Z,0.60
2023-03-06T07:52:42.268Z,0.60
2023-03-06T07:55:11.290Z,0.88
2023-03-06T07:57:39.634Z,0.63
2023-03-06T08:00:12.756Z,0.68
2023-03-06T08:02:41.569Z,0.70
2023-03-06T08:05:13.815Z,0.90
2023-03-06T08:07:41.724Z,0.70
2023-03-06T08:10:10.203Z,0.60
2023-03-06T08:12:37.979Z,0.60
2023-03-06T08:15:06.678Z,0.70
2023-03-06T08:17:34.449Z,0.70
2023-03-06T08:20:02.229Z,0.93
2023-03-06T08:22:31.375Z,1.05
2023-03-06T08:24:59.436Z,0.80
2023-03-06T08:27:27.305Z,0.90
2023-03-06T08:29:55.090Z,0.82
2023-03-06T08:32:23.038Z,0.70
2023-03-06T08:34:50.907Z,1.00
2023-03-06T08:37:18.775Z,0.90
2023-03-06T08:39:48.020Z,0.90
2023-03-06T08:42:15.967Z,0.82
2023-03-06T08:45:20.097Z,0.90
2023-03-06T08:47:47.925Z,1.20
2023-03-06T08:50:15.800Z,1.30
2023-03-06T08:52:43.605Z,1.50
2023-03-06T08:55:15.031Z,1.20
2023-03-06T08:57:43.022Z,1.20
2023-03-06T09:00:12.936Z,1.13
2023-03-06T09:02:41.125Z,1.20
2023-03-06T09:05:10.097Z,1.33
2023-03-06T09:07:37.929Z,1.30
2023-03-06T09:10:06.294Z,1.00
2023-03-06T09:12:48.860Z,1.10
2023-03-06T09:15:18.790Z,0.98
2023-03-06T09:17:47.250Z,0.90
2023-03-06T09:20:16.114Z,1.17
2023-03-06T09:22:46.220Z,1.10
2023-03-06T09:25:17.584Z,1.10
2023-03-06T09:27:47.939Z,1.10
2023-03-06T09:30:18.808Z,1.40
2023-03-06T09:32:46.614Z,1.17
2023-03-06T09:35:15.503Z,1.30
2023-03-06T09:37:43.347Z,1.50
2023-03-06T09:40:17.896Z,1.50
2023-03-06T09:42:47.104Z,1.27
2023-03-06T09:45:15.317Z,1.40
2023-03-06T09:47:50.584Z,1.70
2023-03-06T09:50:29.729Z,1.70
2023-03-06T09:53:15.320Z,1.80
2023-03-06T09:55:46.980Z,1.67
2023-03-06T09:58:20.360Z,1.98
2023-03-06T10:00:58.455Z,1.85
2023-03-06T10:03:30.273Z,1.90
2023-03-06T10:06:03.509Z,1.65
2023-03-06T10:08:44.295Z,1.93
2023-03-06T10:11:14.489Z,2.10
2023-03-06T10:13:46.853Z,2.03
2023-03-06T10:16:27.819Z,2.17
2023-03-06T10:19:00.051Z,2.15
2023-03-06T10:21:40.187Z,1.80
2023-03-06T10:24:20.214Z,1.77
2023-03-06T10:26:54.027Z,2.10
2023-03-06T10:29:39.304Z,1.60
2023-03-06T10:32:22.215Z,1.25
2023-03-06T10:34:51.833Z,1.33
2023-03-06T10:37:21.595Z,1.05
2023-03-06T10:39:54.851Z,1.05
2023-03-06T10:42:22.683Z,0.93
2023-03-06T10:45:07.610Z,1.00
2023-03-06T10:47:36.873Z,0.90
2023-03-06T10:50:08.555Z,0.90
2023-03-06T10:52:37.153Z,1.00
2023-03-06T10:55:25.444Z,1.10
2023-03-06T10:57:53.748Z,0.80
2023-03-06T11:00:30.035Z,0.80
2023-03-06T11:03:07.525Z,0.77
2023-03-06T11:05:35.331Z,0.80
2023-03-06T11:08:03.156Z,0.77
2023-03-06T11:10:34.946Z,0.75
2023-03-06T11:13:07.439Z,0.90
2023-03-06T11:15:36.943Z,1.05
2023-03-06T11:18:25.258Z,0.90
2023-03-06T11:20:56.116Z,1.05
2023-03-06T11:23:37.874Z,0.93
2023-03-06T11:26:22.364Z,0.97
2023-03-06T11:28:58.519Z,0.85
2023-03-06T11:31:33.434Z,0.90
2023-03-06T11:34:09.511Z,1.00
2023-03-06T11:36:42.574Z,0.90
2023-03-06T11:39:22.305Z,0.90
2023-03-06T11:41:58.000Z,1.10
2023-03-06T11:44:47.708Z,1.10
2023-03-06T11:47:20.829Z,0.82
2023-03-06T11:49:56.085Z,0.90
2023-03-06T11:52:28.644Z,0.90
2023-03-06T11:54:58.631Z,0.88
2023-03-06T11:57:35.160Z,0.90
2023-03-06T12:00:18.316Z,0.80
2023-03-06T12:03:24.060Z,0.75
2023-03-06T12:06:02.354Z,0.70
2023-03-06T12:08:45.870Z,1.00
2023-03-06T12:11:20.737Z,0.70
2023-03-06T12:14:11.876Z,0.63
2023-03-06T12:16:59.939Z,1.38
2023-03-06T12:19:42.635Z,1.00
2023-03-06T12:22:21.818Z,0.80
2023-03-06T12:25:02.709Z,1.00
2023-03-06T12:27:41.782Z,0.80
2023-03-06T12:30:42.323Z,1.10
2023-03-06T12:33:23.798Z,0.90
2023-03-06T12:36:01.604Z,0.70
2023-03-06T12:38:45.905Z,0.85
2023-03-06T12:41:25.766Z,0.90
2023-03-06T12:44:11.249Z,0.80
2023-03-06T12:46:44.451Z,1.40
2023-03-06T12:49:31.079Z,1.10
2023-03-06T12:52:03.207Z,0.90
2023-03-06T12:54:34.774Z,0.80
2023-03-06T12:57:02.935Z,0.90
2023-03-06T12:59:39.238Z,0.70
2023-03-06T13:02:35.823Z,0.68
2023-03-06T13:05:42.011Z,1.00
2023-03-06T13:08:38.444Z,0.63
2023-03-06T13:11:29.345Z,0.60
2023-03-06T13:13:57.843Z,0.63
2023-03-06T13:16:31.137Z,0.63
2023-03-06T13:19:04.286Z,0.60
2023-03-06T13:22:01.105Z,0.60
2023-03-06T13:24:32.011Z,0.73
2023-03-06T13:27:02.545Z,0.80
2023-03-06T13:30:07.933Z,0.68
2023-03-06T13:32:37.504Z,0.65
2023-03-06T13:35:48.489Z,0.50
2023-03-06T13:38:35.915Z,0.60
2023-03-06T13:41:35.557Z,0.60
2023-03-06T13:44:30.711Z,0.90
2023-03-06T13:47:01.149Z,0.80
2023-03-06T13:49:30.201Z,0.52
2023-03-06T13:52:08.154Z,0.60
2023-03-06T13:54:48.976Z,0.80
2023-03-06T13:57:44.156Z,0.65
2023-03-06T14:00:35.591Z,0.80
2023-03-06T14:03:48.655Z,1.00
2023-03-06T14:06:42.567Z,0.82
2023-03-06T14:09:20.828Z,0.90
2023-03-06T14:11:54.829Z,0.80
2023-03-06T14:14:33.519Z,1.00
2023-03-06T14:17:04.103Z,1.10
2023-03-06T14:19:37.383Z,1.38
2023-03-06T14:22:07.697Z,1.10
2023-03-06T14:24:40.097Z,1.13
2023-03-06T14:27:09.179Z,1.20
2023-03-06T14:29:38.348Z,1.00
2023-03-06T14:32:12.173Z,1.15
2023-03-06T14:34:42.121Z,0.93
2023-03-06T14:37:21.965Z,1.20
2023-03-06T14:39:50.536Z,1.10
2023-03-06T14:42:20.606Z,1.40
2023-03-06T14:44:50.612Z,1.40
2023-03-06T14:47:26.804Z,1.30
2023-03-06T14:50:21.666Z,0.70
2023-03-06T14:52:50.387Z,0.90
2023-03-06T14:55:20.808Z,0.90
2023-03-06T14:57:51.486Z,0.70
2023-03-06T15:00:23.770Z,0.73
2023-03-06T15:02:53.746Z,0.70
2023-03-06T15:05:25.938Z,0.70
2023-03-06T15:07:56.248Z,0.60
2023-03-06T15:10:25.793Z,0.60
2023-03-06T15:12:53.927Z,0.60
2023-03-06T15:15:32.528Z,0.60
2023-03-06T15:18:01.255Z,0.60
2023-03-06T15:20:42.508Z,0.70
2023-03-06T15:23:19.457Z,0.70
2023-03-06T15:25:56.222Z,0.67
2023-03-06T15:28:37.071Z,0.60
2023-03-06T15:31:22.105Z,0.50
2023-03-06T15:34:23.522Z,0.47
2023-03-06T15:36:55.140Z,0.60
2023-03-06T15:39:37.215Z,0.33
2023-03-06T15:42:18.284Z,0.50
2023-03-06T15:44:49.820Z,0.55
2023-03-06T15:47:19.063Z,0.50
2023-03-06T15:49:46.864Z,0.68
2023-03-06T15:52:14.655Z,0.53
2023-03-06T15:54:42.502Z,0.43
2023-03-06T15:57:20.128Z,0.57
2023-03-06T15:59:48.032Z,1.13
2023-03-06T16:02:19.382Z,0.55
2023-03-06T16:04:47.824Z,0.50
2023-03-06T16:07:16.048Z,0.60
2023-03-06T16:09:44.648Z,0.40
2023-03-06T16:12:17.729Z,0.85
2023-03-06T16:14:47.267Z,0.73
2023-03-06T16:17:15.564Z,0.50
2023-03-06T16:19:45.098Z,0.40
2023-03-06T16:22:13.784Z,0.60
2023-03-06T16:24:44.054Z,0.52
2023-03-06T16:27:18.863Z,0.70
2023-03-06T16:29:46.796Z,0.70
2023-03-06T16:32:14.738Z,0.40
2023-03-06T16:34:43.966Z,0.60
2023-03-06T16:37:14.252Z,0.40
2023-03-06T16:39:42.091Z,0.50
2023-03-06T16:42:10.048Z,0.40
2023-03-06T16:44:37.997Z,0.43
2023-03-06T16:47:06.070Z,0.40
2023-03-06T16:49:34.465Z,0.30
2023-03-06T16:52:04.578Z,0.65
2023-03-06T16:54:35.508Z,0.50
2023-03-06T16:57:03.314Z,0.60
2023-03-06T16:59:31.717Z,0.80
2023-03-06T17:02:00.055Z,0.90
2023-03-06T17:04:27.885Z,0.80
2023-03-06T17:06:55.681Z,1.20
2023-03-06T17:09:25.010Z,0.60
2023-03-06T17:11:52.796Z,0.60
2023-03-06T17:14:20.621Z,0.60
2023-03-06T17:16:48.455Z,0.70
2023-03-06T17:19:16.334Z,0.47
2023-03-06T17:21:44.981Z,0.40
2023-03-06T17:24:12.897Z,0.60
2023-03-06T17:26:43.269Z,0.63
2023-03-06T17:29:12.140Z,0.90
2023-03-06T17:31:39.923Z,0.60
2023-03-06T17:34:07.977Z,0.73
2023-03-06T17:36:35.813Z,0.73
2023-03-06T17:39:04.298Z,0.68
2023-03-06T17:41:32.914Z,0.63
2023-03-06T17:44:02.760Z,0.80
2023-03-06T17:46:31.826Z,0.70
2023-03-06T17:48:59.839Z,0.80
2023-03-06T17:51:27.736Z,0.93
2023-03-06T17:53:55.684Z,0.80
2023-03-06T17:56:23.531Z,1.00
2023-03-06T17:58:51.399Z,1.23
2023-03-06T18:01:22.638Z,1.00
2023-03-06T18:03:51.973Z,1.45
2023-03-06T18:06:22.207Z,1.33
2023-03-06T18:08:52.672Z,1.40
2023-03-06T18:11:21.301Z,1.50
2023-03-06T18:13:49.833Z,0.98
2023-03-06T18:16:21.109Z,0.77
2023-03-06T18:18:49.068Z,1.10
2023-03-06T18:21:17.281Z,2.03
2023-03-06T18:23:45.266Z,1.20
2023-03-06T18:26:15.138Z,1.00
2023-03-06T18:28:44.992Z,1.08
2023-03-06T18:31:17.037Z,1.30
2023-03-06T18:33:48.384Z,1.10
2023-03-06T18:36:16.814Z,1.30
2023-03-06T18:38:45.646Z,1.50
2023-03-06T18:41:14.612Z,1.38
2023-03-06T18:43:42.636Z,1.30
2023-03-06T18:46:11.024Z,1.40
2023-03-06T18:48:39.308Z,1.17
2023-03-06T18:51:09.950Z,0.95
2023-03-06T18:53:39.739Z,1.30
2023-03-06T18:56:08.689Z,1.00
2023-03-06T18:58:36.502Z,0.60
2023-03-06T19:01:07.272Z,1.08
2023-03-06T19:03:35.503Z,1.17
2023-03-06T19:06:07.006Z,0.60
2023-03-06T19:08:37.248Z,1.10
2023-03-06T19:11:07.475Z,1.10
2023-03-06T19:13:35.355Z,0.85
2023-03-06T19:16:03.366Z,0.70
2023-03-06T19:18:31.672Z,0.95
2023-03-06T19:21:08.665Z,0.88
2023-03-06T19:23:38.061Z,0.90
2023-03-06T19:26:07.440Z,0.85
2023-03-06T19:28:36.263Z,0.88
2023-03-06T19:31:09.830Z,1.10
2023-03-06T19:33:38.478Z,1.33
2023-03-06T19:36:08.281Z,1.07
2023-03-06T19:38:37.817Z,1.00
2023-03-06T19:41:06.261Z,1.00
2023-03-06T19:43:34.108Z,1.08
2023-03-06T19:46:01.955Z,0.82
2023-03-06T19:48:29.716Z,0.80
2023-03-06T19:50:57.566Z,1.20
2023-03-06T19:53:25.342Z,0.70
2023-03-06T19:56:02.858Z,0.85
2023-03-06T19:58:30.637Z,0.98
2023-03-06T20:01:04.736Z,0.90
2023-03-06T20:03:32.612Z,0.80
2023-03-06T20:06:00.461Z,1.13
2023-03-06T20:08:28.222Z,1.00
2023-03-06T20:10:57.457Z,1.15
2023-03-06T20:13:25.266Z,1.00
2023-03-06T20:15:53.223Z,0.98
2023-03-06T20:18:21.072Z,1.20
2023-03-06T20:20:58.640Z,1.10
2023-03-06T20:23:26.551Z,1.70
2023-03-06T20:25:54.763Z,0.80
2023-03-06T20:28:24.324Z,1.00
2023-03-06T20:30:52.238Z,1.13
2023-03-06T20:33:22.202Z,1.02
2023-03-06T20:35:50.119Z,0.90
2023-03-06T20:38:18.053Z,1.47
2023-03-06T20:40:45.861Z,1.52
2023-03-06T20:43:13.653Z,1.20
2023-03-06T20:45:42.794Z,0.90
2023-03-06T20:48:10.622Z,0.95
2023-03-06T20:50:38.585Z,1.30
2023-03-06T20:53:06.524Z,1.33
2023-03-06T20:55:54.634Z,1.33
2023-03-06T20:58:23.362Z,0.90
2023-03-06T21:00:52.585Z,1.02
2023-03-06T21:03:20.364Z,1.00
2023-03-06T21:05:49.683Z,0.85
2023-03-06T21:08:17.837Z,0.63
2023-03-06T21:10:46.691Z,1.02
2023-03-06T21:13:14.816Z,1.15
2023-03-06T21:15:44.018Z,1.03
2023-03-06T21:18:13.605Z,1.15
2023-03-06T21:20:42.678Z,1.00
2023-03-06T21:23:10.509Z,1.40
2023-03-06T21:25:38.426Z,1.40
2023-03-06T21:28:07.115Z,1.23
2023-03-06T21:30:35.504Z,1.63
2023-03-06T21:33:03.878Z,1.00
2023-03-06T21:35:33.079Z,1.45
2023-03-06T21:38:00.902Z,1.00
2023-03-06T21:40:28.782Z,0.90
2023-03-06T21:42:56.576Z,1.00
2023-03-06T21:45:26.437Z,1.42
2023-03-06T21:47:55.429Z,1.27
2023-03-06T21:50:23.724Z,1.02
2023-03-06T21:52:54.606Z,0.90
2023-03-06T21:55:22.445Z,0.82
2023-03-06T21:57:51.642Z,0.95
2023-03-06T22:00:20.665Z,0.90
2023-03-06T22:02:48.530Z,1.05
2023-03-06T22:05:16.920Z,0.80
2023-03-06T22:07:44.883Z,1.00
2023-03-06T22:10:14.380Z,1.30
2023-03-06T22:12:42.665Z,0.80
2023-03-06T22:15:11.380Z,1.30
2023-03-06T22:17:39.755Z,1.07
2023-03-06T22:20:08.206Z,1.13
2023-03-06T22:22:36.012Z,1.30
2023-03-06T22:25:04.946Z,0.85
2023-03-06T22:27:34.084Z,1.20
2023-03-06T22:30:01.841Z,1.33
2023-03-06T22:32:29.733Z,1.13
2023-03-06T22:34:57.520Z,1.30
2023-03-06T22:37:25.531Z,1.48
2023-03-06T22:39:53.309Z,1.40
2023-03-06T22:42:21.104Z,0.80
2023-03-06T22:44:50.295Z,1.20
2023-03-06T22:47:18.082Z,2.60
2023-03-06T22:49:45.929Z,1.45
2023-03-06T22:52:15.254Z,1.52
2023-03-06T22:54:43.151Z,1.70
2023-03-06T22:57:10.944Z,1.35
2023-03-06T22:59:38.725Z,1.80
2023-03-06T23:02:08.118Z,1.50
2023-03-06T23:04:35.918Z,1.48
2023-03-06T23:07:04.598Z,1.60
2023-03-06T23:09:33.065Z,1.35
2023-03-06T23:12:01.080Z,2.38
2023-03-06T23:14:29.017Z,2.50
2023-03-06T23:16:57.637Z,1.52
2023-03-06T23:19:26.880Z,2.03
2023-03-06T23:21:55.202Z,2.28
2023-03-06T23:24:23.016Z,1.98
2023-03-06T23:26:50.917Z,3.00
2023-03-06T23:29:18.778Z,1.45
2023-03-06T23:31:46.563Z,2.60
2023-03-06T23:34:14.301Z,2.90
2023-03-06T23:36:43.464Z,3.10
2023-03-06T23:39:13.365Z,2.25
2023-03-06T23:41:41.510Z,1.63
2023-03-06T23:44:09.513Z,3.03
2023-03-06T23:46:37.378Z,2.08
2023-03-06T23:49:06.237Z,2.00
2023-03-06T23:51:34.033Z,3.40
2023-03-06T23:54:03.351Z,2.83
2023-03-06T23:56:31.169Z,2.13
2023-03-06T23:58:59.033Z,4.25
